createdAt,value
2019-02-04T00:01:43.362Z,9.87
2019-02-04T00:04:51.899Z,6.13
2019-02-04T00:08:01.233Z,7.27
2019-02-04T00:11:09.897Z,5.70
2019-02-04T00:14:18.346Z,4.87
2019-02-04T00:17:27.020Z,9.03
2019-02-04T00:20:36.037Z,9.00
2019-02-04T00:23:44.602Z,3.67
2019-02-04T00:26:54.914Z,5.77
2019-02-04T00:30:03.477Z,10.87
2019-02-04T00:33:12.327Z,6.03
2019-02-04T00:36:20.712Z,6.10
2019-02-04T00:39:29.252Z,4.90
2019-02-04T00:42:37.813Z,6.90
2019-02-04T00:45:46.774Z,8.40
2019-02-04T00:48:55.337Z,5.70
2019-02-04T00:52:03.801Z,5.80
2019-02-04T00:55:12.890Z,5.67
2019-02-04T00:58:21.795Z,7.00
2019-02-04T01:01:30.368Z,5.60
2019-02-04T01:04:38.898Z,6.23
2019-02-04T01:07:48.149Z,5.30
2019-02-04T01:10:56.861Z,4.30
2019-02-04T01:14:05.436Z,3.93
2019-02-04T01:17:14.222Z,4.67
2019-02-04T01:20:26.379Z,9.13
2019-02-04T01:23:35.134Z,5.70
2019-02-04T01:26:43.819Z,4.07
2019-02-04T01:29:52.360Z,3.43
2019-02-04T01:33:11.106Z,4.97
2019-02-04T01:36:19.592Z,4.93
2019-02-04T01:39:28.160Z,4.53
2019-02-04T01:42:36.624Z,7.07
2019-02-04T01:45:45.255Z,4.90
2019-02-04T01:49:04.005Z,6.63
2019-02-04T01:52:12.751Z,5.47
2019-02-04T01:55:21.326Z,4.50
2019-02-04T01:58:30.007Z,7.30
2019-02-04T02:01:38.546Z,6.80
2019-02-04T02:04:47.386Z,4.07
2019-02-04T02:07:55.956Z,7.83
2019-02-04T02:11:04.493Z,3.23
2019-02-04T02:14:23.332Z,5.37
2019-02-04T02:17:32.005Z,6.53
2019-02-04T02:20:40.452Z,4.60
2019-02-04T02:23:48.992Z,5.50
2019-02-04T02:26:57.594Z,4.40
2019-02-04T02:30:09.592Z,3.13
2019-02-04T02:33:18.334Z,6.33
2019-02-04T02:36:37.116Z,8.17
2019-02-04T02:39:45.675Z,4.17
2019-02-04T02:42:54.218Z,7.27
2019-02-04T02:46:02.905Z,8.50
2019-02-04T02:49:11.476Z,4.93
2019-02-04T02:52:20.022Z,6.23
2019-02-04T02:55:38.917Z,2.47
2019-02-04T02:58:47.508Z,5.23
2019-02-04T03:01:56.047Z,7.33
2019-02-04T03:05:05.903Z,4.23
2019-02-04T03:08:14.479Z,3.80
2019-02-04T03:11:33.389Z,5.43
2019-02-04T03:14:41.960Z,6.03
2019-02-04T03:17:52.490Z,6.53
2019-02-04T03:21:00.964Z,6.50
2019-02-04T03:24:09.534Z,8.13
2019-02-04T03:27:18.163Z,6.67
2019-02-04T03:30:30.088Z,5.37
2019-02-04T03:33:38.604Z,3.47
2019-02-04T03:36:57.664Z,5.90
2019-02-04T03:40:07.404Z,7.07
2019-02-04T03:43:16.126Z,7.63
2019-02-04T03:46:24.951Z,5.00
2019-02-04T03:49:33.523Z,8.97
2019-02-04T03:52:42.094Z,5.17
2019-02-04T03:55:51.018Z,5.47
2019-02-04T03:58:59.575Z,6.90
2019-02-04T04:02:18.487Z,8.50
2019-02-04T04:05:27.073Z,8.40
2019-02-04T04:08:35.609Z,9.40
2019-02-04T04:11:44.176Z,5.17
2019-02-04T04:14:52.743Z,7.60
2019-02-04T04:18:16.105Z,4.53
2019-02-04T04:21:21.691Z,6.10
2019-02-04T04:24:30.232Z,7.70
2019-02-04T04:27:38.863Z,6.17
2019-02-04T04:30:47.427Z,5.03
2019-02-04T04:33:55.979Z,6.70
2019-02-04T04:37:04.835Z,7.60
2019-02-04T04:40:24.094Z,7.40
2019-02-04T04:43:42.916Z,8.10
2019-02-04T04:46:51.609Z,7.67
2019-02-04T04:50:00.193Z,9.07
2019-02-04T04:53:08.891Z,8.23
2019-02-04T04:56:17.540Z,7.43
2019-02-04T04:59:26.113Z,8.97
2019-02-04T05:02:34.601Z,6.27
2019-02-04T05:05:43.505Z,7.57
2019-02-04T05:09:02.389Z,8.13
2019-02-04T05:12:10.967Z,6.37
2019-02-04T05:15:22.893Z,6.40
2019-02-04T05:18:38.248Z,6.63
2019-02-04T05:21:41.638Z,7.37
2019-02-04T05:24:50.183Z,6.10
2019-02-04T05:28:08.993Z,5.07
2019-02-04T05:31:17.567Z,6.60
2019-02-04T05:34:26.113Z,5.83
2019-02-04T05:37:34.756Z,6.90
2019-02-04T05:40:43.303Z,5.93
2019-02-04T05:43:51.876Z,6.47
2019-02-04T05:47:10.865Z,7.13
2019-02-04T05:50:30.125Z,4.83
2019-02-04T05:53:38.692Z,10.47
2019-02-04T05:56:47.274Z,5.13
2019-02-04T05:59:55.884Z,8.10
2019-02-04T06:03:04.452Z,8.93
2019-02-04T06:06:23.232Z,7.53
2019-02-04T06:09:31.808Z,7.90
2019-02-04T06:12:40.379Z,9.33
2019-02-04T06:15:49.035Z,9.97
2019-02-04T06:19:00.970Z,5.00
2019-02-04T06:22:08.156Z,6.47
2019-02-04T06:25:16.845Z,4.60
2019-02-04T06:28:25.366Z,5.97
2019-02-04T06:31:34.489Z,6.40
2019-02-04T06:34:43.062Z,4.83
2019-02-04T06:37:51.767Z,5.37
2019-02-04T06:41:00.337Z,4.93
2019-02-04T06:44:09.391Z,4.73
2019-02-04T06:47:18.043Z,8.03
2019-02-04T06:50:36.878Z,7.63
2019-02-04T06:53:45.457Z,5.37
2019-02-04T06:56:54.035Z,6.30
2019-02-04T07:00:02.651Z,4.10
2019-02-04T07:03:11.293Z,4.63
2019-02-04T07:06:19.934Z,4.50
2019-02-04T07:09:28.581Z,6.23
2019-02-04T07:12:47.420Z,5.97
2019-02-04T07:15:57.143Z,6.23
2019-02-04T07:19:05.805Z,6.17
2019-02-04T07:22:14.377Z,4.03
2019-02-04T07:25:33.209Z,4.13
2019-02-04T07:28:41.662Z,5.73
2019-02-04T07:31:50.305Z,4.30
2019-02-04T07:34:58.858Z,5.57
2019-02-04T07:38:07.911Z,9.43
2019-02-04T07:41:16.525Z,9.47
2019-02-04T07:44:25.027Z,10.27
2019-02-04T07:47:43.908Z,9.70
2019-02-04T07:50:52.355Z,11.03
2019-02-04T07:54:00.850Z,8.87
2019-02-04T07:57:09.421Z,9.80
2019-02-04T08:00:30.057Z,10.50
2019-02-04T08:03:38.532Z,9.67
2019-02-04T08:06:47.556Z,8.37
2019-02-04T08:09:56.110Z,10.30
2019-02-04T08:13:04.691Z,10.40
2019-02-04T08:16:13.358Z,10.47
2019-02-04T08:19:21.967Z,11.23
2019-02-04T08:22:40.749Z,10.40
2019-02-04T08:25:49.394Z,10.97
2019-02-04T08:28:57.863Z,10.67
2019-02-04T08:32:06.893Z,10.53
2019-02-04T08:35:15.672Z,11.57
2019-02-04T08:38:22.730Z,10.30
2019-02-04T08:41:31.289Z,10.33
2019-02-04T08:44:39.942Z,10.53
2019-02-04T08:47:48.810Z,10.30
2019-02-04T08:50:57.373Z,15.20
2019-02-04T08:54:05.950Z,13.63
2019-02-04T08:57:24.946Z,13.83
2019-02-04T09:00:33.413Z,12.13
2019-02-04T09:03:41.955Z,13.07
2019-02-04T09:06:50.589Z,13.00
2019-02-04T09:09:59.180Z,14.37
2019-02-04T09:13:07.731Z,15.87
2019-02-04T09:16:26.763Z,17.43
2019-02-04T09:19:35.396Z,14.77
2019-02-04T09:22:43.233Z,15.60
2019-02-04T09:26:02.010Z,14.43
2019-02-04T09:29:10.659Z,16.57
2019-02-04T09:32:20.358Z,16.10
2019-02-04T09:35:29.446Z,14.33
2019-02-04T09:38:37.917Z,16.23
2019-02-04T09:41:46.494Z,14.40
2019-02-04T09:45:05.821Z,14.43
2019-02-04T09:48:24.888Z,18.03
2019-02-04T09:51:44.003Z,16.83
2019-02-04T09:54:52.571Z,17.97
2019-02-04T09:58:01.205Z,17.43
2019-02-04T10:01:09.997Z,18.67
2019-02-04T10:04:18.464Z,15.30
2019-02-04T10:07:27.049Z,17.77
2019-02-04T10:10:45.792Z,18.77
2019-02-04T10:13:54.382Z,19.27
2019-02-04T10:17:04.289Z,18.67
2019-02-04T10:20:15.034Z,17.50
2019-02-04T10:23:23.556Z,18.77
2019-02-04T10:26:32.232Z,18.67
2019-02-04T10:29:43.693Z,19.87
2019-02-04T10:32:52.415Z,17.13
2019-02-04T10:36:01.042Z,17.00
2019-02-04T10:39:10.998Z,16.60
2019-02-04T10:42:19.606Z,17.00
2019-02-04T10:45:28.445Z,16.07
2019-02-04T10:48:37.147Z,18.87
2019-02-04T10:51:45.829Z,13.37
2019-02-04T10:54:55.026Z,15.30
2019-02-04T10:58:03.988Z,14.33
2019-02-04T11:01:12.779Z,14.40
2019-02-04T11:04:21.438Z,13.10
2019-02-04T11:07:31.280Z,14.87
2019-02-04T11:10:40.199Z,14.80
2019-02-04T11:13:49.023Z,13.07
2019-02-04T11:16:57.705Z,13.13
2019-02-04T11:20:14.570Z,19.23
2019-02-04T11:23:23.142Z,15.07
2019-02-04T11:26:43.256Z,13.33
2019-02-04T11:29:51.819Z,15.33
2019-02-04T11:33:00.917Z,14.37
2019-02-04T11:36:09.508Z,13.90
2019-02-04T11:39:18.419Z,14.50
2019-02-04T11:42:28.607Z,11.47
2019-02-04T11:45:37.416Z,13.87
2019-02-04T11:48:45.991Z,11.47
2019-02-04T11:51:54.814Z,11.40
2019-02-04T11:55:03.601Z,13.10
2019-02-04T11:58:12.280Z,11.97
2019-02-04T12:01:30.957Z,16.87
2019-02-04T12:04:39.633Z,12.43
2019-02-04T12:07:48.284Z,13.07
2019-02-04T12:11:12.384Z,18.20
2019-02-04T12:14:31.109Z,9.30
2019-02-04T12:17:39.774Z,11.30
2019-02-04T12:20:48.348Z,13.40
2019-02-04T12:23:56.944Z,10.13
2019-02-04T12:27:05.424Z,9.83
2019-02-04T12:30:20.396Z,15.70
2019-02-04T12:33:39.226Z,14.63
2019-02-04T12:36:47.830Z,11.60
2019-02-04T12:39:56.410Z,11.73
2019-02-04T12:43:05.335Z,10.63
2019-02-04T12:46:13.932Z,10.80
2019-02-04T12:49:22.567Z,9.63
2019-02-04T12:52:31.116Z,10.80
2019-02-04T12:55:41.309Z,9.87
2019-02-04T12:59:00.195Z,10.27
2019-02-04T13:02:09.167Z,9.97
2019-02-04T13:05:47.790Z,10.37
2019-02-04T13:08:56.343Z,13.43
2019-02-04T13:12:05.025Z,10.03
2019-02-04T13:15:17.365Z,13.53
2019-02-04T13:18:25.963Z,11.47
2019-02-04T13:21:45.170Z,7.70
2019-02-04T13:24:45.983Z,8.57
2019-02-04T13:27:54.751Z,7.70
2019-02-04T13:31:13.373Z,7.67
2019-02-04T13:34:21.924Z,8.43
2019-02-04T13:37:30.423Z,13.00
2019-02-04T13:40:38.994Z,9.53
2019-02-04T13:43:47.546Z,9.97
2019-02-04T13:47:06.859Z,10.83
2019-02-04T13:50:25.962Z,12.27
2019-02-04T13:53:34.538Z,7.57
2019-02-04T13:56:43.303Z,6.43
2019-02-04T13:59:51.856Z,8.00
2019-02-04T14:03:01.375Z,9.60
2019-02-04T14:06:20.299Z,10.07
2019-02-04T14:09:39.544Z,10.70
2019-02-04T14:12:48.326Z,13.43
2019-02-04T14:15:57.021Z,7.13
2019-02-04T14:19:05.819Z,8.10
2019-02-04T14:22:14.412Z,8.97
2019-02-04T14:25:23.368Z,8.97
2019-02-04T14:28:32.077Z,5.97
2019-02-04T14:31:40.567Z,6.87
2019-02-04T14:34:51.287Z,7.67
2019-02-04T14:37:59.724Z,5.63
2019-02-04T14:41:08.273Z,6.33
2019-02-04T14:44:55.978Z,6.90
2019-02-04T14:49:19.703Z,8.93
2019-02-04T14:53:31.434Z,7.57
2019-02-04T14:57:39.029Z,6.53
2019-02-04T15:02:19.698Z,8.80
2019-02-04T15:05:53.257Z,7.60
2019-02-04T15:09:52.774Z,6.93
2019-02-04T15:13:18.098Z,5.90
2019-02-04T15:16:51.058Z,6.37
2019-02-04T15:20:49.142Z,6.73
2019-02-04T15:25:08.630Z,8.77
2019-02-04T15:29:33.263Z,8.13
2019-02-04T15:33:15.253Z,7.43
2019-02-04T15:37:29.628Z,6.23
2019-02-04T15:41:22.989Z,7.17
2019-02-04T15:45:25.610Z,6.17
2019-02-04T15:49:04.894Z,5.30
2019-02-04T15:52:24.107Z,5.53
2019-02-04T15:55:32.848Z,5.07
2019-02-04T15:58:41.451Z,4.73
2019-02-04T16:01:50.122Z,6.17
2019-02-04T16:04:58.629Z,6.67
2019-02-04T16:08:07.354Z,6.63
2019-02-04T16:11:15.886Z,5.73
2019-02-04T16:14:34.647Z,5.53
2019-02-04T16:17:43.239Z,4.87
2019-02-04T16:20:51.868Z,5.90
2019-02-04T16:24:00.509Z,7.60
2019-02-04T16:27:09.021Z,8.03
2019-02-04T16:30:20.379Z,4.90
2019-02-04T16:33:28.852Z,4.93
2019-02-04T16:36:37.422Z,8.17
2019-02-04T16:39:46.056Z,7.00
2019-02-04T16:42:54.632Z,7.27
2019-02-04T16:46:03.292Z,5.73
2019-02-04T16:49:22.024Z,7.97
2019-02-04T16:52:32.062Z,4.30
2019-02-04T16:55:40.838Z,5.43
2019-02-04T16:58:49.914Z,5.50
2019-02-04T17:01:58.385Z,5.20
2019-02-04T17:05:10.162Z,5.63
2019-02-04T17:08:18.935Z,8.43
2019-02-04T17:11:28.371Z,6.67
2019-02-04T17:14:37.023Z,5.80
2019-02-04T17:17:45.536Z,6.70
2019-02-04T17:20:52.531Z,6.43
2019-02-04T17:24:01.005Z,8.80
2019-02-04T17:27:19.800Z,6.67
2019-02-04T17:30:28.809Z,5.40
2019-02-04T17:33:37.366Z,5.37
2019-02-04T17:36:46.223Z,5.10
2019-02-04T17:39:55.013Z,7.27
2019-02-04T17:43:03.633Z,6.67
2019-02-04T17:46:14.960Z,9.33
2019-02-04T17:49:23.702Z,7.43
2019-02-04T17:52:32.421Z,6.67
2019-02-04T17:55:53.091Z,5.63
2019-02-04T17:59:12.111Z,7.07
2019-02-04T18:02:20.717Z,7.80
2019-02-04T18:05:29.668Z,6.27
2019-02-04T18:08:38.309Z,5.13
2019-02-04T18:11:46.861Z,8.20
2019-02-04T18:14:55.572Z,5.47
2019-02-04T18:18:04.696Z,6.07
2019-02-04T18:21:13.249Z,6.47
2019-02-04T18:24:21.824Z,5.10
2019-02-04T18:27:30.426Z,6.87
2019-02-04T18:30:39.110Z,6.87
2019-02-04T18:33:57.856Z,6.50
2019-02-04T18:37:06.346Z,7.07
2019-02-04T18:40:17.723Z,6.77
2019-02-04T18:43:26.475Z,6.40
2019-02-04T18:46:45.254Z,5.23
2019-02-04T18:49:52.909Z,4.57
2019-02-04T18:53:11.739Z,5.87
2019-02-04T18:56:20.465Z,6.27
2019-02-04T18:59:28.944Z,5.37
2019-02-04T19:02:37.800Z,5.97
2019-02-04T19:05:46.311Z,6.17
2019-02-04T19:08:54.874Z,6.67
2019-02-04T19:12:03.425Z,5.73
2019-02-04T19:15:16.466Z,6.63
2019-02-04T19:18:25.149Z,5.57
2019-02-04T19:21:33.723Z,5.40
2019-02-04T19:24:42.310Z,10.13
2019-02-04T19:27:51.596Z,7.60
2019-02-04T19:31:15.543Z,5.87
2019-02-04T19:34:34.336Z,5.33
2019-02-04T19:37:42.821Z,8.23
2019-02-04T19:40:51.395Z,6.73
2019-02-04T19:43:59.945Z,6.43
2019-02-04T19:47:08.914Z,7.07
2019-02-04T19:50:22.433Z,6.97
2019-02-04T19:53:30.891Z,5.63
2019-02-04T19:56:49.748Z,5.57
2019-02-04T20:00:14.921Z,7.87
2019-02-04T20:03:24.170Z,6.43
2019-02-04T20:06:32.844Z,6.27
2019-02-04T20:09:41.329Z,6.00
2019-02-04T20:12:49.899Z,6.67
2019-02-04T20:15:58.585Z,7.10
2019-02-04T20:19:07.179Z,6.90
2019-02-04T20:22:26.005Z,7.83
2019-02-04T20:25:34.697Z,5.90
2019-02-04T20:28:54.154Z,7.43
2019-02-04T20:32:02.731Z,8.83
2019-02-04T20:35:11.484Z,5.67
2019-02-04T20:38:20.033Z,7.27
2019-02-04T20:41:28.609Z,8.57
2019-02-04T20:44:37.162Z,8.13
2019-02-04T20:47:55.952Z,7.33
2019-02-04T20:51:04.510Z,6.23
2019-02-04T20:54:19.891Z,7.53
2019-02-04T20:57:23.319Z,7.43
2019-02-04T21:00:32.033Z,6.83
2019-02-04T21:03:40.777Z,8.43
2019-02-04T21:06:56.156Z,7.00
2019-02-04T21:09:59.666Z,7.43
2019-02-04T21:13:18.444Z,7.43
2019-02-04T21:16:27.049Z,6.37
2019-02-04T21:19:35.632Z,12.97
2019-02-04T21:22:43.449Z,6.07
2019-02-04T21:25:52.097Z,6.67
2019-02-04T21:29:00.679Z,7.23
2019-02-04T21:32:09.235Z,6.90
2019-02-04T21:35:17.908Z,7.40
2019-02-04T21:38:26.403Z,7.80
2019-02-04T21:41:35.007Z,9.60
2019-02-04T21:44:53.805Z,12.03
2019-02-04T21:48:02.717Z,11.10
2019-02-04T21:51:11.277Z,9.53
2019-02-04T21:54:19.854Z,8.37
2019-02-04T21:57:28.435Z,9.30
2019-02-04T22:00:40.030Z,7.13
2019-02-04T22:03:58.755Z,7.80
2019-02-04T22:07:09.660Z,8.87
2019-02-04T22:10:21.938Z,9.83
2019-02-04T22:13:30.461Z,9.87
2019-02-04T22:16:49.399Z,8.03
2019-02-04T22:19:57.969Z,6.43
2019-02-04T22:23:17.420Z,12.87
2019-02-04T22:26:26.348Z,8.87
2019-02-04T22:29:34.997Z,7.47
2019-02-04T22:32:43.561Z,7.93
2019-02-04T22:35:52.418Z,8.60
2019-02-04T22:39:00.990Z,9.00
2019-02-04T22:42:11.309Z,11.43
2019-02-04T22:45:20.241Z,8.70
2019-02-04T22:48:28.713Z,9.80
2019-02-04T22:51:37.275Z,9.57
2019-02-04T22:54:47.545Z,9.47
2019-02-04T22:58:07.194Z,10.27
2019-02-04T23:01:48.016Z,10.40
2019-02-04T23:04:56.518Z,8.20
2019-02-04T23:08:15.368Z,10.90
2019-02-04T23:11:23.956Z,10.00
2019-02-04T23:14:32.565Z,11.13
2019-02-04T23:17:41.334Z,9.90
2019-02-04T23:20:49.922Z,10.33
2019-02-04T23:23:58.473Z,9.10
2019-02-04T23:27:07.128Z,9.73
2019-02-04T23:30:16.136Z,8.80
2019-02-04T23:33:33.857Z,10.43
2019-02-04T23:36:35.404Z,8.40
2019-02-04T23:39:44.248Z,9.50
2019-02-04T23:42:53.082Z,11.17
2019-02-04T23:46:01.743Z,10.20
2019-02-04T23:49:10.287Z,9.33
2019-02-04T23:52:29.083Z,9.27
2019-02-04T23:55:37.749Z,10.73
2019-02-04T23:58:46.229Z,10.33
